Time;durP1;ratioP1;P1;durP2;ratioP2;P2;SDS_P1;SDS_P2;PMS_P1;PMS_P2;Temp;Humidity;BMP_temperature;BMP_pressure;BME280_temperature;BME280_humidity;BME280_pressure;Samples;Min_cycle;Max_cycle;Signal;HPM_P1;HPM_P2
2022/01/06 00:01:34;;;;;;;;;18.00;12.50;;;;;4.07;76.65;101728.72;5053967;28;46284;-73
2022/01/06 00:04:00;;;;;;;;;12.00;11.75;;;;;4.03;76.64;101724.41;5054605;28;45545;-73
2022/01/06 00:06:25;;;;;;;;;15.25;12.00;;;;;4.09;76.91;101729.59;5055122;28;45478;-74
2022/01/06 00:08:53;;;;;;;;;11.00;11.00;;;;;3.98;76.69;101715.72;5057765;28;45790;-73
2022/01/06 00:11:19;;;;;;;;;13.00;10.50;;;;;4.06;76.62;101730.44;5051193;27;45490;-73
2022/01/06 00:13:55;;;;;;;;;18.75;15.25;;;;;3.98;76.64;101714.00;5052064;28;45451;-73
2022/01/06 00:24:20;;;;;;;;;9.75;7.50;;;;;3.87;76.91;101721.81;5052814;28;45431;-73
2022/01/06 00:26:45;;;;;;;;;12.00;10.25;;;;;3.83;76.84;101719.19;5051522;28;45920;-73
2022/01/06 00:29:11;;;;;;;;;12.00;9.25;;;;;3.83;76.94;101722.66;5053028;28;45426;-73
2022/01/06 00:31:37;;;;;;;;;20.50;13.50;;;;;3.81;77.02;101726.09;5053090;28;45299;-73
2022/01/06 00:34:04;;;;;;;;;11.00;8.75;;;;;3.68;76.98;101709.66;5059316;28;45552;-73
2022/01/06 00:36:30;;;;;;;;;7.25;7.25;;;;;3.69;77.17;101726.09;5055164;28;45778;-74
2022/01/06 00:38:56;;;;;;;;;12.25;11.00;;;;;3.72;77.05;101726.13;5058877;28;45550;-73
2022/01/06 00:41:22;;;;;;;;;16.00;11.00;;;;;3.70;77.10;101730.44;5053107;28;45516;-73
2022/01/06 00:43:47;;;;;;;;;14.50;11.00;;;;;3.69;77.15;101736.50;5051094;28;45963;-73
2022/01/06 00:46:12;;;;;;;;;14.00;11.00;;;;;3.56;77.37;101726.09;5047499;28;45462;-73
2022/01/06 00:48:38;;;;;;;;;16.25;14.00;;;;;3.54;77.46;101726.94;5055974;28;45538;-73
2022/01/06 00:51:03;;;;;;;;;15.25;11.75;;;;;3.60;77.46;101751.25;5058476;28;45560;-73
2022/01/06 00:53:28;;;;;;;;;21.00;11.50;;;;;3.58;77.32;101747.75;5058214;28;46025;-74
2022/01/06 00:55:54;;;;;;;;;19.50;12.25;;;;;3.55;77.52;101741.66;5056664;28;45465;-73
2022/01/06 00:58:19;;;;;;;;;17.25;14.00;;;;;3.50;77.72;101740.78;5054232;28;45304;-73
2022/01/06 01:00:44;;;;;;;;;13.50;10.00;;;;;3.42;77.64;101727.78;5049899;28;45371;-73
2022/01/06 01:03:18;;;;;;;;;11.25;10.00;;;;;3.46;77.59;101739.06;5053722;28;45542;-73
2022/01/06 01:05:45;;;;;;;;;13.50;13.00;;;;;3.47;77.51;101759.84;5041849;28;45486;-73
2022/01/06 01:08:11;;;;;;;;;18.25;13.50;;;;;3.44;77.26;101758.97;5057235;28;45505;-73
2022/01/06 01:10:40;;;;;;;;;15.00;9.75;;;;;3.34;77.32;101745.06;5061800;28;45528;-73
2022/01/06 01:13:11;;;;;;;;;15.25;13.00;;;;;3.34;77.68;101748.56;5052042;28;45562;-73
2022/01/06 01:15:44;;;;;;;;;16.00;10.25;;;;;3.36;77.48;101759.81;5054744;28;45667;-73
2022/01/06 01:18:10;;;;;;;;;16.00;9.75;;;;;3.28;77.66;101748.53;5044039;28;45627;-73
2022/01/06 01:20:36;;;;;;;;;15.25;10.75;;;;;3.26;78.25;101754.59;5061814;28;45537;-73
2022/01/06 01:23:02;;;;;;;;;9.00;9.00;;;;;3.29;77.72;101757.19;5052211;28;45451;-73
2022/01/06 01:25:27;;;;;;;;;16.00;10.75;;;;;3.19;77.70;101747.66;5059413;28;45485;-73
2022/01/06 01:27:55;;;;;;;;;14.50;12.75;;;;;3.28;77.71;101755.47;5060534;28;45520;-73
2022/01/06 01:30:28;;;;;;;;;14.50;13.25;;;;;3.27;77.93;101758.91;5059475;28;45399;-73
2022/01/06 01:32:54;;;;;;;;;14.25;12.25;;;;;3.24;77.82;101754.59;5056992;28;45478;-73
2022/01/06 01:35:19;;;;;;;;;18.25;11.75;;;;;3.22;78.08;101758.03;5047485;28;45402;-73
2022/01/06 01:37:45;;;;;;;;;17.75;13.50;;;;;3.18;78.29;101757.16;5067297;28;45564;-73
2022/01/06 01:40:11;;;;;;;;;14.33;10.00;;;;;3.18;78.63;101762.34;5057997;28;45505;-73
2022/01/06 01:42:37;;;;;;;;;15.25;10.00;;;;;3.12;78.72;101762.31;5053907;28;45473;-73
2022/01/06 01:45:05;;;;;;;;;18.00;13.25;;;;;3.11;78.85;101763.19;5057276;28;45434;-73
2022/01/06 01:47:51;;;;;;;;;17.50;12.25;;;;;3.10;78.46;101759.72;5058508;28;45526;-73
2022/01/06 01:50:17;;;;;;;;;15.00;11.75;;;;;3.10;78.50;101759.72;5048507;28;45478;-73
2022/01/06 01:52:47;;;;;;;;;11.50;10.50;;;;;3.08;78.83;101773.56;5055414;28;45295;-73
2022/01/06 01:55:18;;;;;;;;;12.25;10.75;;;;;3.01;78.98;101775.25;5056858;28;45347;-73
2022/01/06 01:57:43;;;;;;;;;15.00;11.00;;;;;2.99;79.04;101777.00;5065492;27;45351;-73
2022/01/06 02:00:11;;;;;;;;;19.25;14.75;;;;;3.00;79.03;101785.66;5063330;28;45339;-73
2022/01/06 02:02:37;;;;;;;;;14.00;11.00;;;;;2.98;78.70;101787.38;5055957;28;46065;-73
2022/01/06 02:05:04;;;;;;;;;11.25;10.25;;;;;2.97;78.43;101780.44;5054440;28;45497;-73
2022/01/06 02:07:29;;;;;;;;;11.75;10.50;;;;;2.97;78.77;101783.03;5065510;28;45396;-73
2022/01/06 02:09:54;;;;;;;;;12.75;11.25;;;;;2.95;79.44;101784.75;5056879;28;45462;-73
2022/01/06 02:12:32;;;;;;;;;15.75;11.50;;;;;2.94;79.22;101789.09;5056996;28;45395;-73
2022/01/06 02:14:58;;;;;;;;;17.00;12.75;;;;;2.92;78.84;101780.41;5060859;28;45633;-73
2022/01/06 02:17:23;;;;;;;;;15.50;14.50;;;;;2.90;79.18;101781.28;5056896;28;45468;-73
2022/01/06 02:19:59;;;;;;;;;17.75;11.00;;;;;2.87;78.90;101783.00;5064759;28;45973;-73
2022/01/06 02:22:25;;;;;;;;;12.50;10.25;;;;;2.86;79.16;101781.25;5060369;28;46053;-73
2022/01/06 02:24:51;;;;;;;;;22.50;17.75;;;;;2.83;78.92;101783.84;5059626;28;45803;-73
2022/01/06 02:27:20;;;;;;;;;18.75;16.25;;;;;2.73;79.30;101773.41;5056380;28;45515;-73
2022/01/06 02:29:47;;;;;;;;;16.50;14.50;;;;;2.78;79.31;101777.75;5059533;28;45506;-73
2022/01/06 02:32:16;;;;;;;;;18.00;18.00;;;;;2.77;79.14;101780.34;5054787;28;45551;-73
2022/01/06 02:34:41;;;;;;;;;26.00;17.50;;;;;2.75;79.40;101777.72;5055099;28;46119;-73
2022/01/06 02:37:07;;;;;;;;;20.50;18.25;;;;;2.74;78.97;101773.41;5067100;28;45501;-73
2022/01/06 02:39:33;;;;;;;;;23.50;17.75;;;;;2.72;79.22;101776.84;5054178;28;49822;-73
2022/01/06 02:41:58;;;;;;;;;22.75;18.25;;;;;2.62;79.73;101765.53;5047755;28;46140;-73
2022/01/06 02:44:25;;;;;;;;;19.00;16.00;;;;;2.68;79.29;101780.28;5054537;28;45522;-73
2022/01/06 02:46:54;;;;;;;;;19.75;14.00;;;;;2.67;79.48;101779.41;5054407;28;45403;-73
2022/01/06 02:49:20;;;;;;;;;18.50;14.25;;;;;2.66;79.10;101776.78;5051857;28;45421;-73
2022/01/06 02:51:45;;;;;;;;;18.75;13.00;;;;;2.63;79.24;101774.19;5054752;28;45483;-73
2022/01/06 02:54:12;;;;;;;;;22.75;17.00;;;;;2.53;79.49;101768.06;5053650;28;45431;-73
2022/01/06 02:56:38;;;;;;;;;15.25;14.00;;;;;2.63;80.10;101785.44;5058158;28;49059;-73
2022/01/06 02:59:04;;;;;;;;;19.50;15.00;;;;;2.61;79.81;101790.63;5062276;28;48063;-73
2022/01/06 03:01:29;;;;;;;;;20.50;15.00;;;;;2.62;79.56;101794.09;5063733;28;46036;-73
2022/01/06 03:03:55;;;;;;;;;21.50;18.00;;;;;2.61;79.53;101792.38;5057109;28;45432;-73
2022/01/06 03:06:20;;;;;;;;;22.00;18.75;;;;;2.59;79.34;101799.25;5058515;28;45656;-73
2022/01/06 03:08:46;;;;;;;;;26.33;24.33;;;;;2.56;79.79;101796.66;5057310;28;45366;-73
2022/01/06 03:11:11;;;;;;;;;18.50;16.75;;;;;2.54;79.68;101800.94;5053892;28;45542;-73
2022/01/06 03:13:37;;;;;;;;;23.00;17.25;;;;;2.48;79.94;101795.72;5055358;28;45413;-73
2022/01/06 03:16:03;;;;;;;;;21.00;20.00;;;;;2.49;79.63;101808.69;5043619;28;45507;-73
2022/01/06 03:18:28;;;;;;;;;26.25;16.50;;;;;2.47;80.21;101814.75;5052392;28;45328;-73
2022/01/06 03:20:54;;;;;;;;;22.25;20.00;;;;;2.45;80.25;101816.44;5055345;28;46133;-72
2022/01/06 03:23:19;;;;;;;;;18.25;17.25;;;;;2.41;79.94;101801.72;5056875;28;45778;-73
2022/01/06 03:25:45;;;;;;;;;28.25;19.25;;;;;2.51;80.09;101825.16;5060703;28;45801;-73
2022/01/06 03:28:10;;;;;;;;;26.25;22.50;;;;;2.52;80.01;101821.69;5056313;28;45544;-73
2022/01/06 03:30:36;;;;;;;;;31.25;20.00;;;;;2.58;80.49;101828.66;5055225;28;46197;-73
2022/01/06 03:33:02;;;;;;;;;25.75;20.00;;;;;2.55;80.00;101816.50;5058997;28;45411;-73
2022/01/06 03:35:27;;;;;;;;;16.50;15.25;;;;;2.59;80.64;101818.28;5053918;28;45422;-73
2022/01/06 03:37:53;;;;;;;;;23.75;19.75;;;;;2.71;80.38;101825.28;5053295;28;45503;-73
2022/01/06 03:40:19;;;;;;;;;28.33;22.00;;;;;2.63;80.17;101808.81;5061536;28;46152;-73
2022/01/06 03:42:45;;;;;;;;;25.75;16.75;;;;;2.76;80.21;101825.31;5054501;28;45997;-73
2022/01/06 03:45:14;;;;;;;;;26.25;21.25;;;;;2.78;79.96;101832.25;5053637;28;45571;-73
2022/01/06 03:47:40;;;;;;;;;17.50;15.25;;;;;2.78;80.24;101832.25;5054427;28;45439;-73
2022/01/06 03:50:07;;;;;;;;;16.75;16.75;;;;;2.78;79.92;101841.78;5056237;28;46259;-73
2022/01/06 03:52:32;;;;;;;;;28.25;23.00;;;;;2.78;80.20;101832.25;5056234;28;45945;-73
2022/01/06 03:54:57;;;;;;;;;21.50;20.00;;;;;2.80;80.57;101821.88;5054734;28;45532;-73
2022/01/06 03:57:23;;;;;;;;;18.67;16.67;;;;;2.79;80.72;101813.22;5053846;28;45581;-73
2022/01/06 03:59:48;;;;;;;;;21.50;15.25;;;;;2.93;80.63;101828.03;5052955;28;45432;-73
2022/01/06 04:02:13;;;;;;;;;19.50;15.00;;;;;2.97;80.71;101824.56;5048770;28;45577;-73
2022/01/06 04:04:39;;;;;;;;;17.33;11.00;;;;;3.00;80.61;101825.47;5052485;28;51573;-73
2022/01/06 04:07:04;;;;;;;;;21.00;15.50;;;;;3.06;80.42;101824.63;5054361;28;45383;-73
2022/01/06 04:09:30;;;;;;;;;16.75;16.75;;;;;3.05;80.53;101826.38;5056866;28;46030;-73
2022/01/06 04:11:55;;;;;;;;;19.00;16.50;;;;;3.13;80.76;101828.97;5058199;28;46010;-73
2022/01/06 04:14:20;;;;;;;;;16.50;16.50;;;;;3.14;80.24;101830.75;5052472;28;45537;-73
2022/01/06 04:16:46;;;;;;;;;26.00;17.25;;;;;3.11;80.88;101818.59;5069358;28;45536;-73
2022/01/06 04:19:11;;;;;;;;;20.00;13.50;;;;;3.20;80.42;101835.97;5059649;28;45371;-73
2022/01/06 04:21:36;;;;;;;;;19.33;15.33;;;;;3.22;80.31;101831.63;5057395;28;48041;-73
2022/01/06 04:24:02;;;;;;;;;17.50;15.25;;;;;3.22;80.73;101831.63;5054124;28;46288;-73
2022/01/06 04:26:27;;;;;;;;;17.25;14.00;;;;;3.21;80.52;101832.50;5061701;28;45595;-73
2022/01/06 04:28:53;;;;;;;;;23.25;16.75;;;;;3.20;80.62;101838.56;5042123;28;45489;-73
2022/01/06 04:31:18;;;;;;;;;18.50;15.25;;;;;3.22;80.78;101841.16;5069391;28;45596;-73
2022/01/06 04:33:43;;;;;;;;;16.50;13.25;;;;;3.21;80.50;101840.28;5036972;28;45316;-73
2022/01/06 04:36:12;;;;;;;;;17.50;16.75;;;;;3.24;80.76;101842.94;5053805;28;45401;-73
2022/01/06 04:38:37;;;;;;;;;18.25;14.50;;;;;3.26;80.59;101842.91;5058878;28;45536;-73
2022/01/06 04:41:04;;;;;;;;;20.00;17.00;;;;;3.21;80.67;101829.91;5053977;28;45401;-73
2022/01/06 04:43:30;;;;;;;;;20.75;17.25;;;;;3.00;81.03;101798.63;5053461;28;45446;-73
2022/01/06 04:45:55;;;;;;;;;15.50;14.00;;;;;3.18;80.96;101849.78;5056369;28;45464;-73
2022/01/06 04:48:20;;;;;;;;;14.00;13.50;;;;;3.16;80.55;101844.59;5060094;28;46604;-73
2022/01/06 04:50:46;;;;;;;;;22.33;17.33;;;;;3.13;80.83;101848.06;5059894;28;53653;-73
2022/01/06 04:53:12;;;;;;;;;17.50;14.00;;;;;3.13;80.73;101852.34;5061046;28;45495;-73
2022/01/06 04:55:37;;;;;;;;;19.33;16.33;;;;;3.13;80.77;101848.06;5067133;28;45466;-73
2022/01/06 04:58:02;;;;;;;;;21.00;16.67;;;;;3.11;81.01;101852.38;5056176;28;57684;-73
2022/01/06 05:00:27;;;;;;;;;20.75;15.50;;;;;3.09;80.55;101846.31;5053278;28;45367;-73
2022/01/06 05:02:53;;;;;;;;;21.67;16.00;;;;;3.06;80.69;101840.22;5056117;28;47302;-73
2022/01/06 05:05:18;;;;;;;;;21.25;19.50;;;;;2.94;80.47;101827.16;5047937;28;45489;-73
2022/01/06 05:07:44;;;;;;;;;26.00;18.75;;;;;2.95;80.23;101852.28;5056445;28;46066;-73
2022/01/06 05:10:10;;;;;;;;;28.50;21.50;;;;;2.80;80.58;101843.50;5060622;28;45856;-73
2022/01/06 05:12:44;;;;;;;;;21.75;20.00;;;;;2.82;80.79;101849.59;5063870;28;45493;-73
2022/01/06 05:15:11;;;;;;;;;22.25;18.00;;;;;2.79;80.94;101857.34;5059652;28;45710;-74
2022/01/06 05:17:36;;;;;;;;;25.25;20.25;;;;;2.73;80.84;101857.31;5063621;28;45707;-73
2022/01/06 05:20:04;;;;;;;;;29.25;21.00;;;;;2.68;80.63;101858.16;5044540;28;46849;-73
2022/01/06 05:22:30;;;;;;;;;21.50;17.00;;;;;2.58;80.90;101854.59;5055127;28;45604;-73
2022/01/06 05:24:55;;;;;;;;;21.75;17.25;;;;;2.59;81.03;101861.53;5056539;28;45455;-73
2022/01/06 05:27:21;;;;;;;;;26.75;17.75;;;;;2.52;80.71;101863.22;5056832;28;46341;-73
2022/01/06 05:29:46;;;;;;;;;23.00;20.25;;;;;2.49;80.88;101865.78;5056863;28;45459;-73
2022/01/06 05:32:12;;;;;;;;;17.00;13.00;;;;;2.47;80.55;101870.09;5063535;28;45288;-73
2022/01/06 05:34:37;;;;;;;;;23.00;21.75;;;;;2.45;80.67;101873.50;5062674;28;45334;-73
2022/01/06 05:37:03;;;;;;;;;19.25;15.75;;;;;2.34;80.78;101863.03;5064457;27;46026;-73
2022/01/06 05:39:28;;;;;;;;;21.50;20.75;;;;;2.37;81.08;101873.47;5064690;28;45473;-73
2022/01/06 05:41:53;;;;;;;;;25.33;20.67;;;;;2.34;80.68;101869.09;5058781;27;45261;-73
2022/01/06 05:44:19;;;;;;;;;20.67;19.33;;;;;2.33;80.67;101869.97;5065073;28;45494;-73
2022/01/06 05:46:47;;;;;;;;;23.25;14.25;;;;;2.32;80.96;101876.00;5064905;28;46046;-73
2022/01/06 05:49:14;;;;;;;;;19.25;17.00;;;;;2.30;80.64;101887.25;5066322;28;45911;-73
2022/01/06 05:51:40;;;;;;;;;18.25;15.50;;;;;2.29;81.14;101888.06;5062267;28;45752;-73
2022/01/06 05:54:05;;;;;;;;;24.25;18.25;;;;;2.26;81.20;101896.72;5068028;28;45504;-73
2022/01/06 05:56:31;;;;;;;;;19.00;15.50;;;;;2.17;81.20;101882.78;5058108;28;45799;-73
2022/01/06 05:58:57;;;;;;;;;23.00;19.25;;;;;2.26;81.61;101899.28;5064584;28;45601;-73
2022/01/06 06:01:22;;;;;;;;;22.50;17.50;;;;;2.18;81.25;101876.72;5061146;28;46046;-73
2022/01/06 06:03:47;;;;;;;;;28.25;21.25;;;;;2.25;81.00;101884.59;5056451;28;45597;-73
2022/01/06 06:06:13;;;;;;;;;32.75;24.00;;;;;2.25;81.19;101894.09;5057975;28;46049;-73
2022/01/06 06:08:38;;;;;;;;;28.33;25.00;;;;;2.29;81.27;101888.06;5064721;28;46802;-74
2022/01/06 06:11:03;;;;;;;;;29.00;25.00;;;;;2.39;81.48;101902.00;5055662;28;45802;-73
2022/01/06 06:13:28;;;;;;;;;33.33;26.00;;;;;2.39;81.49;101891.63;5060372;28;45449;-73
2022/01/06 06:15:54;;;;;;;;;30.00;22.33;;;;;2.43;81.09;101889.06;5057573;28;51485;-73
2022/01/06 06:18:19;;;;;;;;;34.75;26.50;;;;;2.60;81.34;101905.66;5057717;28;45261;-73
2022/01/06 06:20:44;;;;;;;;;29.25;24.25;;;;;2.60;81.37;101889.22;5055052;28;45442;-73
2022/01/06 06:23:10;;;;;;;;;33.00;20.33;;;;;2.76;81.79;101908.38;5058570;28;45541;-73
2022/01/06 06:25:35;;;;;;;;;23.33;22.33;;;;;2.83;81.32;101917.97;5055935;28;46215;-74
2022/01/06 06:28:01;;;;;;;;;31.00;19.50;;;;;2.91;81.50;101918.00;5060515;28;45497;-74
2022/01/06 06:30:26;;;;;;;;;22.50;15.25;;;;;2.96;81.62;101918.91;5051031;28;45507;-73
2022/01/06 06:32:52;;;;;;;;;21.00;20.75;;;;;3.00;81.57;101921.56;5055111;28;45606;-73
2022/01/06 06:35:18;;;;;;;;;23.00;22.25;;;;;3.00;81.49;101915.50;5063867;28;46016;-74
2022/01/06 06:37:44;;;;;;;;;20.75;18.25;;;;;3.07;81.33;101925.91;5054722;28;45443;-74
2022/01/06 06:40:10;;;;;;;;;19.75;14.50;;;;;2.90;81.53;101885.13;5053575;28;45414;-73
2022/01/06 06:42:35;;;;;;;;;26.75;23.50;;;;;3.17;81.54;101931.19;5059103;28;45489;-74
2022/01/06 06:45:00;;;;;;;;;28.00;23.00;;;;;3.20;81.06;101939.00;5062515;27;47446;-74
2022/01/06 06:47:26;;;;;;;;;15.25;7.50;;;;;3.23;81.30;101937.28;5062294;28;45473;-73
2022/01/06 06:49:52;;;;;;;;;36.75;23.50;;;;;3.26;81.07;101934.72;5053945;28;45452;-73
2022/01/06 06:52:17;;;;;;;;;30.25;23.25;;;;;3.31;81.00;101935.59;5062624;28;45451;-73
2022/01/06 06:54:43;;;;;;;;;46.00;35.75;;;;;3.37;81.19;101934.78;5060886;28;45341;-73
2022/01/06 06:57:09;;;;;;;;;30.25;27.25;;;;;3.41;80.98;101936.53;5062719;28;45496;-73
2022/01/06 06:59:34;;;;;;;;;20.50;16.75;;;;;3.39;81.48;101930.44;5064340;28;45505;-73
2022/01/06 07:02:00;;;;;;;;;37.00;25.75;;;;;3.51;81.14;101940.06;5051458;28;45477;-73
2022/01/06 07:04:25;;;;;;;;;34.25;26.75;;;;;3.53;81.20;101940.94;5058427;28;46106;-73
2022/01/06 07:06:50;;;;;;;;;29.75;23.75;;;;;3.54;80.94;101940.94;5054373;28;45384;-73
2022/01/06 07:09:16;;;;;;;;;25.00;19.67;;;;;3.63;81.25;101946.19;5052666;28;50652;-73
2022/01/06 07:11:41;;;;;;;;;26.75;26.00;;;;;3.63;80.65;101938.38;5062269;28;45514;-73
2022/01/06 07:14:07;;;;;;;;;30.75;29.25;;;;;3.73;80.63;101946.22;5054597;28;46100;-73
2022/01/06 07:16:32;;;;;;;;;48.25;36.00;;;;;3.75;80.90;101947.97;5055897;28;45372;-73
2022/01/06 07:18:57;;;;;;;;;39.75;37.00;;;;;3.78;81.04;101955.78;5037034;28;45486;-74
2022/01/06 07:21:23;;;;;;;;;44.67;37.33;;;;;3.77;80.58;101941.06;5056381;28;45494;-73
2022/01/06 07:23:48;;;;;;;;;51.25;39.75;;;;;3.80;80.55;101937.59;5058952;28;45998;-73
2022/01/06 07:26:13;;;;;;;;;38.25;33.25;;;;;3.85;80.68;101936.75;5067723;28;45505;-73
2022/01/06 07:28:38;;;;;;;;;27.00;18.50;;;;;3.90;80.71;101939.38;5069273;28;45452;-74
2022/01/06 07:31:04;;;;;;;;;32.00;25.00;;;;;3.96;80.43;101946.31;5060147;28;45460;-73
2022/01/06 07:33:31;;;;;;;;;44.25;34.75;;;;;3.92;80.61;101937.66;5053321;28;45585;-73
2022/01/06 07:35:56;;;;;;;;;42.00;31.25;;;;;3.99;80.36;101955.00;5054839;28;45877;-73
2022/01/06 07:38:22;;;;;;;;;43.75;32.75;;;;;4.01;80.63;101949.81;5059085;28;45627;-73
2022/01/06 07:40:48;;;;;;;;;51.25;41.00;;;;;3.98;80.23;101945.47;5053960;28;45612;-74
2022/01/06 07:43:13;;;;;;;;;50.75;44.50;;;;;3.99;80.78;101941.13;5057905;28;45376;-74
2022/01/06 07:45:38;;;;;;;;;28.00;21.33;;;;;4.07;80.29;101960.22;5054518;28;45726;-74
2022/01/06 07:48:14;;;;;;;;;39.67;33.00;;;;;4.00;80.62;101945.47;5060092;28;45433;-74
2022/01/06 07:50:40;;;;;;;;;39.75;34.50;;;;;4.09;80.21;101959.38;5053500;28;45405;-74
2022/01/06 07:53:05;;;;;;;;;44.50;35.50;;;;;4.09;80.28;101959.38;5053356;28;46321;-74
2022/01/06 07:55:31;;;;;;;;;48.50;36.75;;;;;4.14;80.53;101969.81;5054580;28;45324;-74
2022/01/06 07:57:56;;;;;;;;;48.00;37.00;;;;;4.16;80.36;101971.53;5054002;28;45837;-74
2022/01/06 08:00:22;;;;;;;;;42.50;34.00;;;;;4.18;80.24;101969.81;5060778;28;45608;-74
2022/01/06 08:02:47;;;;;;;;;38.25;29.25;;;;;3.98;80.37;101929.00;5038214;28;46274;-74
2022/01/06 08:05:15;;;;;;;;;38.25;29.25;;;;;4.27;80.02;101971.56;5034759;28;45554;-74
2022/01/06 08:07:40;;;;;;;;;35.50;25.50;;;;;4.26;80.54;101954.22;5052953;28;45382;-74
2022/01/06 08:10:07;;;;;;;;;41.00;38.75;;;;;4.31;80.24;101962.91;5057277;28;45624;-74
2022/01/06 08:12:33;;;;;;;;;62.50;43.50;;;;;4.34;80.06;101964.66;5038507;28;47186;-74
2022/01/06 08:14:59;;;;;;;;;43.00;33.75;;;;;4.34;80.48;101957.72;5048791;28;45593;-74
2022/01/06 08:17:24;;;;;;;;;43.00;35.00;;;;;4.45;80.16;101973.34;5053238;28;45437;-74
2022/01/06 08:19:51;;;;;;;;;45.75;37.75;;;;;4.40;80.43;101956.88;5060595;28;45327;-74
2022/01/06 08:22:17;;;;;;;;;41.00;33.75;;;;;4.43;80.13;101954.25;5054665;28;45985;-73
2022/01/06 08:24:42;;;;;;;;;36.00;29.25;;;;;4.54;80.27;101968.19;5057634;28;45427;-74
2022/01/06 08:27:08;;;;;;;;;38.00;32.00;;;;;4.57;80.22;101962.09;5054283;28;49814;-74
2022/01/06 08:29:38;;;;;;;;;44.00;33.75;;;;;4.62;80.26;101970.78;5052593;28;45445;-74
2022/01/06 08:32:04;;;;;;;;;39.00;31.50;;;;;4.69;80.26;101967.31;5052801;28;45535;-74
2022/01/06 08:34:29;;;;;;;;;27.50;25.75;;;;;4.76;80.11;101971.66;5053886;28;45474;-74
2022/01/06 08:36:55;;;;;;;;;41.00;32.00;;;;;4.78;79.75;101979.47;5064431;28;45305;-73
2022/01/06 08:39:21;;;;;;;;;35.50;28.00;;;;;4.89;79.84;101988.16;5056647;28;45253;-75
2022/01/06 08:41:47;;;;;;;;;32.50;27.25;;;;;4.97;79.79;101983.84;5058100;28;45565;-74
2022/01/06 08:44:12;;;;;;;;;67.75;50.50;;;;;5.09;79.45;101980.34;5052652;28;45814;-74
2022/01/06 08:46:38;;;;;;;;;36.75;34.75;;;;;5.19;79.29;101982.09;5054077;28;45406;-74
2022/01/06 08:49:06;;;;;;;;;33.75;26.25;;;;;5.26;79.41;101977.72;5052942;28;45512;-74
2022/01/06 08:51:32;;;;;;;;;34.25;26.75;;;;;5.29;79.50;101981.22;5052892;28;45534;-74
2022/01/06 08:53:58;;;;;;;;;45.50;34.00;;;;;5.27;79.28;101969.91;5053270;28;46102;-74
2022/01/06 08:56:23;;;;;;;;;34.25;28.00;;;;;5.43;78.98;101986.41;5052846;28;45386;-74
2022/01/06 08:58:48;;;;;;;;;30.25;28.75;;;;;5.50;78.88;101993.34;5052865;28;45816;-73
2022/01/06 09:01:14;;;;;;;;;43.75;33.00;;;;;5.47;79.17;101973.34;5054414;28;45435;-72
2022/01/06 09:03:39;;;;;;;;;40.75;28.75;;;;;5.63;78.73;101988.94;5063260;28;45488;-73
2022/01/06 09:06:04;;;;;;;;;29.67;26.33;;;;;5.65;78.75;101987.22;5058262;28;45411;-73
2022/01/06 09:08:30;;;;;;;;;35.33;27.67;;;;;5.75;78.89;101996.78;5060715;28;50298;-71
2022/01/06 09:10:55;;;;;;;;;31.50;25.00;;;;;5.80;78.97;101988.94;5051988;28;49900;-72
2022/01/06 09:13:21;;;;;;;;;42.50;31.25;;;;;5.90;78.99;101996.72;5065570;28;45628;-72
2022/01/06 09:15:46;;;;;;;;;29.25;26.75;;;;;5.98;78.68;101996.72;5052238;28;45398;-72
2022/01/06 09:18:12;;;;;;;;;37.50;31.75;;;;;6.01;78.30;101989.75;5053959;28;45468;-72
2022/01/06 09:20:37;;;;;;;;;40.25;30.75;;;;;6.19;78.17;101999.22;5052241;28;45449;-73
2022/01/06 09:23:02;;;;;;;;;26.75;22.25;;;;;6.32;77.66;102007.00;5052243;28;45336;-72
2022/01/06 09:25:28;;;;;;;;;33.50;26.25;;;;;6.40;77.70;101997.38;5051324;28;45476;-72
2022/01/06 09:27:54;;;;;;;;;31.00;24.00;;;;;6.56;77.02;101999.03;5059242;28;45500;-72
2022/01/06 09:30:23;;;;;;;;;29.00;23.50;;;;;6.70;76.56;102001.56;5051809;28;46391;-72
2022/01/06 09:32:49;;;;;;;;;28.50;23.50;;;;;6.79;76.14;102011.97;5054739;28;45844;-72
2022/01/06 09:35:14;;;;;;;;;38.25;20.25;;;;;6.88;76.00;102001.41;5037437;28;45551;-73
2022/01/06 09:37:40;;;;;;;;;32.00;25.50;;;;;6.94;75.68;101997.88;5036669;28;45337;-72
2022/01/06 09:40:08;;;;;;;;;29.25;22.75;;;;;7.05;75.48;102003.94;5048568;28;46120;-73
2022/01/06 09:42:34;;;;;;;;;26.00;22.50;;;;;7.14;74.91;102010.81;5047670;28;45691;-73
2022/01/06 09:45:00;;;;;;;;;23.50;22.25;;;;;7.19;74.85;102012.50;5047328;28;45593;-73
2022/01/06 09:47:27;;;;;;;;;36.75;27.25;;;;;7.26;74.89;102008.09;5051603;28;45422;-72
2022/01/06 09:49:53;;;;;;;;;33.50;27.25;;;;;7.35;74.76;102021.06;5038821;28;45685;-73
2022/01/06 09:52:21;;;;;;;;;31.25;26.00;;;;;7.38;73.98;102014.97;5051680;28;45556;-73
2022/01/06 09:54:47;;;;;;;;;26.00;23.25;;;;;7.39;73.58;102025.41;5052194;28;45423;-73
2022/01/06 09:57:14;;;;;;;;;34.75;26.75;;;;;7.37;73.78;102016.72;5046721;28;45814;-73
2022/01/06 09:59:43;;;;;;;;;27.75;23.50;;;;;7.51;73.93;102025.28;5042090;28;45916;-73
2022/01/06 10:02:14;;;;;;;;;31.75;27.00;;;;;7.65;73.58;102024.28;5039691;28;46111;-73
2022/01/06 10:04:40;;;;;;;;;27.75;24.25;;;;;7.72;73.27;102031.19;5055263;28;45513;-74
2022/01/06 10:07:07;;;;;;;;;33.00;28.00;;;;;7.73;73.11;102025.09;5058089;28;45352;-73
2022/01/06 10:09:34;;;;;;;;;28.25;25.25;;;;;7.69;73.22;102032.09;5053923;28;46611;-73
2022/01/06 10:12:03;;;;;;;;;27.00;24.75;;;;;7.72;73.37;102028.56;5058859;28;45547;-73
2022/01/06 10:14:44;;;;;;;;;31.75;24.75;;;;;7.77;73.31;102038.09;5065405;28;45661;-73
2022/01/06 10:17:13;;;;;;;;;114.75;86.50;;;;;7.78;73.15;102028.53;5045425;28;45455;-72
2022/01/06 10:19:43;;;;;;;;;32.25;26.75;;;;;7.80;72.89;102031.97;5068242;28;47145;-72
2022/01/06 10:22:17;;;;;;;;;27.00;20.75;;;;;7.73;72.39;102025.97;5059645;28;45325;-72
2022/01/06 10:24:45;;;;;;;;;25.50;24.75;;;;;7.73;72.55;102035.56;5053785;28;45366;-72
2022/01/06 10:27:12;;;;;;;;;26.50;23.25;;;;;7.74;72.20;102032.06;5053793;28;45344;-72
2022/01/06 10:29:44;;;;;;;;;33.00;26.25;;;;;7.73;72.11;102022.47;5054529;28;46702;-72
2022/01/06 10:32:13;;;;;;;;;27.50;22.25;;;;;7.72;72.14;102024.19;5054078;28;45413;-72
2022/01/06 10:34:42;;;;;;;;;23.50;21.50;;;;;7.78;72.38;102023.28;5055405;28;45394;-72
2022/01/06 10:37:16;;;;;;;;;26.75;17.75;;;;;7.86;72.69;102024.06;5054864;28;45370;-72
2022/01/06 10:39:42;;;;;;;;;25.25;20.50;;;;;7.94;72.08;102024.84;5053979;28;46268;-72
2022/01/06 10:42:09;;;;;;;;;30.00;23.50;;;;;7.97;72.63;102014.31;5054141;28;45568;-72
2022/01/06 10:44:50;;;;;;;;;30.00;23.25;;;;;8.13;72.56;102024.63;5054119;28;45463;-72
2022/01/06 10:47:47;;;;;;;;;32.25;24.50;;;;;8.19;72.10;102014.94;5048802;28;45713;-72
2022/01/06 10:50:20;;;;;;;;;30.25;27.00;;;;;8.26;71.40;102020.97;5038539;28;45362;-72
2022/01/06 10:52:53;;;;;;;;;24.25;21.50;;;;;8.34;71.63;102017.34;5053228;28;45426;-72
2022/01/06 10:55:26;;;;;;;;;31.75;28.25;;;;;8.38;71.28;102001.63;5054074;28;45541;-72
2022/01/06 10:57:53;;;;;;;;;36.00;26.00;;;;;8.53;71.06;102010.16;5058743;28;45496;-72
2022/01/06 11:00:20;;;;;;;;;29.00;25.50;;;;;8.73;70.51;101999.38;5053049;28;46111;-74
2022/01/06 11:02:45;;;;;;;;;30.75;27.75;;;;;9.08;71.10;101993.59;5053390;28;45758;-72
2022/01/06 11:05:11;;;;;;;;;32.25;25.25;;;;;9.40;69.75;101994.78;5053713;28;45441;-72
2022/01/06 11:07:36;;;;;;;;;30.75;24.25;;;;;9.70;69.36;101998.59;5053788;28;45487;-73
2022/01/06 11:10:13;;;;;;;;;33.00;28.00;;;;;9.78;69.27;101986.19;5055076;28;46289;-73
2022/01/06 11:12:39;;;;;;;;;28.00;23.50;;;;;9.76;68.44;101985.38;5059779;28;45994;-73
2022/01/06 11:15:05;;;;;;;;;25.25;23.00;;;;;9.72;68.49;101980.19;5058894;28;45569;-73
2022/01/06 11:17:30;;;;;;;;;31.50;23.25;;;;;9.68;68.09;101987.25;5053791;28;46072;-73
2022/01/06 11:19:56;;;;;;;;;35.50;26.75;;;;;9.59;67.45;101983.03;5053547;28;46226;-73
2022/01/06 11:22:26;;;;;;;;;30.50;20.25;;;;;9.43;67.60;101971.09;5055810;28;45437;-73